Time;durP1;ratioP1;P1;durP2;ratioP2;P2;SDS_P1;SDS_P2;PMS_P1;PMS_P2;Temp;Humidity;BMP_temperature;BMP_pressure;BME280_temperature;BME280_humidity;BME280_pressure;Samples;Min_cycle;Max_cycle;Signal;HPM_P1;HPM_P2
2022/07/18 00:00:54;;;;;;;11.00;3.63;;;;;;;17.71;53.47;101805.28;5071289;28;20076;-57
2022/07/18 00:03:21;;;;;;;7.25;3.20;;;;;;;17.75;53.41;101803.31;5063499;28;20125;-61
2022/07/18 00:05:48;;;;;;;7.38;3.15;;;;;;;17.76;53.18;101810.34;5052486;28;20053;-60
2022/07/18 00:08:16;;;;;;;7.60;3.25;;;;;;;17.76;52.61;101805.00;5052245;28;20049;-59
2022/07/18 00:10:43;;;;;;;7.68;2.83;;;;;;;17.79;52.43;101795.00;5052670;28;20142;-57
2022/07/18 00:13:10;;;;;;;6.43;2.67;;;;;;;17.83;52.40;101796.47;5055283;28;20060;-57
2022/07/18 00:15:37;;;;;;;8.38;2.38;;;;;;;17.84;51.90;101795.50;5069445;28;20059;-53
2022/07/18 00:18:05;;;;;;;7.25;2.60;;;;;;;17.86;51.99;101787.41;5070639;28;20060;-55
2022/07/18 00:20:32;;;;;;;5.53;2.15;;;;;;;17.88;51.75;101790.81;5066950;28;20119;-58
2022/07/18 00:22:59;;;;;;;7.47;1.80;;;;;;;17.88;51.67;101783.69;5051150;28;20383;-58
2022/07/18 00:25:26;;;;;;;6.50;2.28;;;;;;;17.90;51.51;101784.41;5049120;28;20053;-58
2022/07/18 00:27:53;;;;;;;6.50;2.40;;;;;;;17.92;51.34;101787.84;5050630;28;20061;-52
2022/07/18 00:30:20;;;;;;;7.03;2.35;;;;;;;17.93;51.49;101792.19;5051456;28;20049;-60
2022/07/18 00:32:49;;;;;;;6.55;2.03;;;;;;;17.94;51.42;101795.72;5062204;28;20433;-59
2022/07/18 00:35:16;;;;;;;8.40;2.72;;;;;;;17.95;51.31;101798.25;5053784;28;20052;-54
2022/07/18 00:37:43;;;;;;;4.47;2.08;;;;;;;17.95;51.86;101808.06;5050844;28;20421;-56
2022/07/18 00:40:10;;;;;;;7.40;2.83;;;;;;;17.95;51.92;101800.91;5049207;28;20052;-59
2022/07/18 00:42:38;;;;;;;6.95;2.22;;;;;;;17.94;52.57;101809.03;5066928;28;20241;-57
2022/07/18 00:45:05;;;;;;;5.88;2.10;;;;;;;17.92;52.42;101809.16;5068877;28;20060;-56
2022/07/18 00:47:32;;;;;;;7.68;2.67;;;;;;;17.91;52.13;101807.41;5061147;28;20053;-55
2022/07/18 00:49:59;;;;;;;7.55;2.40;;;;;;;17.89;52.29;101806.69;5066753;28;20074;-58
2022/07/18 00:52:26;;;;;;;6.25;2.13;;;;;;;17.89;52.12;101811.16;5070111;28;20392;-53
2022/07/18 00:54:54;;;;;;;6.57;2.25;;;;;;;17.85;52.37;101804.34;5067012;28;20055;-55
2022/07/18 00:57:21;;;;;;;8.05;1.95;;;;;;;17.84;52.78;101808.84;5075069;28;20049;-56
2022/07/18 01:02:34;;;;;;;7.97;1.98;;;;;;;17.76;52.30;101807.66;5069779;28;20528;-57
2022/07/18 01:05:01;;;;;;;5.97;1.83;;;;;;;17.74;52.81;101807.75;5048243;28;20084;-58
2022/07/18 01:07:28;;;;;;;7.32;2.22;;;;;;;17.72;52.61;101799.00;5049575;28;20053;-55
2022/07/18 01:09:56;;;;;;;5.30;2.25;;;;;;;17.70;52.90;101799.13;5048284;28;20057;-54
2022/07/18 01:12:23;;;;;;;7.28;2.30;;;;;;;17.69;52.78;101807.19;5049225;28;20053;-57
2022/07/18 01:14:50;;;;;;;8.38;1.77;;;;;;;17.66;52.88;101802.09;5064078;28;20059;-58
2022/07/18 01:17:19;;;;;;;6.45;2.00;;;;;;;17.62;53.36;101809.44;5067851;28;20139;-55
2022/07/18 01:19:46;;;;;;;6.78;2.58;;;;;;;17.59;53.53;101804.31;5065952;28;21089;-55
2022/07/18 01:22:16;;;;;;;7.07;2.42;;;;;;;17.57;53.49;101800.09;5069467;28;20052;-57
2022/07/18 01:24:44;;;;;;;4.05;2.00;;;;;;;17.54;53.25;101790.50;5067156;28;20287;-55
2022/07/18 01:27:16;;;;;;;2.90;1.30;;;;;;;17.52;53.73;101792.41;5067359;28;20055;-58
2022/07/18 01:29:44;;;;;;;7.45;1.48;;;;;;;17.45;53.58;101786.66;5061787;28;20057;-56
2022/07/18 01:32:12;;;;;;;5.68;2.00;;;;;;;17.42;53.64;101789.53;5079428;23;20432;-57
2022/07/18 01:34:40;;;;;;;5.30;1.90;;;;;;;17.38;53.52;101781.84;5046041;28;20516;-56
2022/07/18 01:37:08;;;;;;;7.78;1.90;;;;;;;17.31;54.18;101789.44;5044854;28;20072;-51
2022/07/18 01:39:35;;;;;;;10.25;2.40;;;;;;;17.27;54.01;101795.91;5048767;28;20059;-59
2022/07/18 01:42:04;;;;;;;3.92;1.60;;;;;;;17.26;54.21;101790.72;5047596;28;20079;-56
2022/07/18 01:44:33;;;;;;;11.52;2.53;;;;;;;17.23;54.35;101793.56;5043066;28;20052;-57
2022/07/18 01:47:01;;;;;;;10.48;2.25;;;;;;;17.20;54.38;101795.50;5027130;28;20056;-54
2022/07/18 01:49:29;;;;;;;6.97;2.05;;;;;;;17.17;54.80;101797.50;5028995;28;20055;-57
2022/07/18 01:51:57;;;;;;;7.75;2.25;;;;;;;17.14;54.72;101800.38;5028378;28;20079;-57
2022/07/18 01:54:27;;;;;;;11.15;2.42;;;;;;;17.10;54.98;101807.69;5029270;28;20053;-57
2022/07/18 01:56:54;;;;;;;6.55;1.98;;;;;;;17.05;55.14;101804.50;5050523;28;20068;-59
2022/07/18 01:59:22;;;;;;;6.68;1.67;;;;;;;17.02;55.05;101807.38;5050090;28;20282;-59
2022/07/18 02:01:50;;;;;;;6.05;2.40;;;;;;;16.98;55.11;101808.53;5048607;28;20056;-57
2022/07/18 02:04:17;;;;;;;4.90;1.63;;;;;;;16.95;56.00;101806.06;5047938;28;20064;-52
2022/07/18 02:06:45;;;;;;;3.65;1.80;;;;;;;16.91;55.63;101801.91;5052404;28;20106;-54
2022/07/18 02:09:12;;;;;;;9.18;2.03;;;;;;;16.89;56.05;101807.34;5051710;28;20418;-54
2022/07/18 02:11:39;;;;;;;5.85;1.98;;;;;;;16.85;56.27;101808.50;5051193;28;20065;-56
2022/07/18 02:14:06;;;;;;;7.63;2.38;;;;;;;16.79;56.48;101806.22;5053008;28;20052;-57
2022/07/18 02:16:33;;;;;;;7.20;2.03;;;;;;;16.76;56.24;101800.28;5051017;28;20057;-55
2022/07/18 02:19:01;;;;;;;8.25;2.28;;;;;;;16.72;56.35;101799.63;5040852;28;20427;-57
2022/07/18 02:21:28;;;;;;;5.90;1.98;;;;;;;16.68;56.26;101796.28;5046208;28;20057;-57
2022/07/18 02:23:55;;;;;;;5.40;1.83;;;;;;;16.64;57.13;101797.44;5032796;28;20482;-55
2022/07/18 02:26:22;;;;;;;4.30;1.80;;;;;;;16.59;56.69;101794.22;5030972;28;20060;-54
2022/07/18 02:28:49;;;;;;;9.60;2.20;;;;;;;16.56;57.19;101785.59;5031867;28;20058;-56
2022/07/18 02:31:16;;;;;;;5.90;2.25;;;;;;;16.52;57.25;101782.28;5030482;28;20069;-55
2022/07/18 02:33:43;;;;;;;5.57;2.00;;;;;;;16.47;57.89;101787.06;5050718;28;20049;-55
2022/07/18 02:36:12;;;;;;;6.55;2.22;;;;;;;16.41;58.21;101787.47;5037089;28;20058;-54
2022/07/18 02:38:39;;;;;;;8.07;1.77;;;;;;;16.37;58.99;101789.47;5030259;28;20076;-55
2022/07/18 02:41:07;;;;;;;6.95;2.13;;;;;;;16.34;58.48;101783.47;5032965;28;20155;-55
2022/07/18 02:43:34;;;;;;;6.97;2.22;;;;;;;16.32;59.11;101785.41;5052206;28;20052;-55
2022/07/18 02:46:02;;;;;;;9.63;1.73;;;;;;;16.27;59.04;101779.53;5030440;28;20060;-56
2022/07/18 02:48:29;;;;;;;7.28;2.40;;;;;;;16.24;58.98;101785.03;5030499;28;20532;-55
2022/07/18 02:50:56;;;;;;;8.18;2.33;;;;;;;16.21;59.30;101783.44;5030621;28;20056;-55
2022/07/18 02:53:23;;;;;;;5.43;1.63;;;;;;;16.18;58.93;101784.47;5031811;28;20048;-52
2022/07/18 02:55:51;;;;;;;5.30;1.77;;;;;;;16.16;59.24;101778.41;5043922;28;20059;-56
2022/07/18 02:58:18;;;;;;;4.25;2.08;;;;;;;16.11;59.95;101780.50;5043980;28;20445;-57
2022/07/18 03:00:45;;;;;;;3.83;2.00;;;;;;;16.09;59.60;101785.06;5049849;28;20057;-58
2022/07/18 03:03:12;;;;;;;4.60;1.95;;;;;;;16.08;59.57;101779.88;5048670;28;20497;-56
2022/07/18 03:05:39;;;;;;;5.38;1.80;;;;;;;16.07;59.87;101778.13;5044759;28;20131;-53
2022/07/18 03:08:06;;;;;;;4.20;2.00;;;;;;;16.04;60.02;101783.66;5051840;28;20049;-58
2022/07/18 03:10:33;;;;;;;7.03;2.55;;;;;;;16.00;60.46;101782.16;5039643;28;20414;-51
2022/07/18 03:13:00;;;;;;;5.22;2.13;;;;;;;15.96;60.81;101776.16;5033900;28;20075;-56
2022/07/18 03:15:27;;;;;;;5.32;1.90;;;;;;;15.93;60.81;101784.31;5049156;28;20060;-56
2022/07/18 03:17:54;;;;;;;7.18;1.60;;;;;;;15.90;61.42;101773.91;5051212;28;20053;-55
2022/07/18 03:20:22;;;;;;;3.42;1.83;;;;;;;15.89;61.53;101780.16;5037293;28;20053;-55
2022/07/18 03:22:49;;;;;;;5.35;1.70;;;;;;;15.85;61.66;101774.19;5031828;28;20660;-58
2022/07/18 03:25:16;;;;;;;7.53;1.85;;;;;;;15.83;61.33;101770.78;5029923;28;20049;-54
2022/07/18 03:27:43;;;;;;;4.05;1.98;;;;;;;15.83;61.57;101783.19;5031214;28;20551;-57
2022/07/18 03:30:11;;;;;;;4.50;2.15;;;;;;;15.82;61.62;101785.00;5030562;28;20057;-51
2022/07/18 03:32:38;;;;;;;4.85;1.95;;;;;;;15.80;61.76;101783.38;5041468;28;20061;-57
2022/07/18 03:35:06;;;;;;;6.35;2.17;;;;;;;15.80;61.82;101767.44;5051059;28;20127;-55
2022/07/18 03:37:33;;;;;;;5.35;2.03;;;;;;;15.80;61.75;101781.56;5041141;28;20065;-56
2022/07/18 03:40:00;;;;;;;6.25;2.15;;;;;;;15.82;61.63;101776.19;5029541;28;20065;-55
2022/07/18 03:42:27;;;;;;;6.40;2.17;;;;;;;15.82;61.70;101768.22;5048072;28;20057;-54
2022/07/18 03:44:54;;;;;;;5.60;1.83;;;;;;;15.81;62.04;101774.50;5038709;28;20280;-57
2022/07/18 03:47:21;;;;;;;7.75;1.90;;;;;;;15.83;61.55;101772.59;5029686;28;20514;-53
2022/07/18 03:49:49;;;;;;;4.22;2.28;;;;;;;15.86;61.55;101773.25;5029025;28;20446;-55
2022/07/18 03:52:16;;;;;;;7.78;2.45;;;;;;;15.89;61.65;101773.03;5030738;28;20056;-53
2022/07/18 03:54:43;;;;;;;3.83;1.60;;;;;;;15.91;61.48;101779.13;5029653;28;20054;-54
2022/07/18 03:57:10;;;;;;;4.88;2.42;;;;;;;15.95;61.05;101777.13;5060405;28;20428;-57
2022/07/18 03:59:37;;;;;;;9.32;2.35;;;;;;;15.97;61.72;101777.88;5055491;28;20052;-55
2022/07/18 04:02:04;;;;;;;7.40;2.67;;;;;;;15.99;61.61;101780.44;5046816;28;20064;-55
2022/07/18 04:04:31;;;;;;;5.53;2.17;;;;;;;15.99;61.50;101783.97;5058102;28;20049;-55
2022/07/18 04:06:59;;;;;;;10.68;2.30;;;;;;;16.02;61.44;101781.09;5053606;28;20079;-57
2022/07/18 04:09:27;;;;;;;6.20;2.08;;;;;;;16.03;61.82;101782.81;5053526;28;20085;-56
2022/07/18 04:11:54;;;;;;;6.35;2.45;;;;;;;16.05;61.74;101780.06;5042155;28;20064;-57
2022/07/18 04:14:22;;;;;;;9.80;2.35;;;;;;;16.08;61.69;101783.38;5054537;28;20045;-54
2022/07/18 04:16:49;;;;;;;6.72;2.60;;;;;;;16.12;61.35;101787.53;5057156;28;20053;-54
2022/07/18 04:19:19;;;;;;;6.18;2.03;;;;;;;16.19;61.05;101785.34;5055266;28;20064;-56
2022/07/18 04:21:46;;;;;;;6.03;2.28;;;;;;;16.24;60.96;101779.72;5043580;28;20065;-55
2022/07/18 04:24:13;;;;;;;6.15;2.83;;;;;;;16.30;60.91;101781.97;5055636;28;20124;-57
2022/07/18 04:26:40;;;;;;;6.60;2.40;;;;;;;16.34;61.09;101778.16;5052023;28;20064;-54
2022/07/18 04:29:08;;;;;;;6.25;2.15;;;;;;;16.38;60.74;101777.88;5058546;28;20049;-56
2022/07/18 04:31:35;;;;;;;11.45;2.90;;;;;;;16.45;60.48;101778.34;5042722;28;20382;-53
2022/07/18 04:34:02;;;;;;;7.88;2.35;;;;;;;16.49;60.08;101781.66;5048250;28;20041;-56
2022/07/18 04:36:30;;;;;;;8.75;2.58;;;;;;;16.51;60.63;101777.06;5070586;28;20063;-56
2022/07/18 04:38:57;;;;;;;12.90;2.90;;;;;;;16.57;60.15;101779.31;5066748;28;20055;-55
2022/07/18 04:41:24;;;;;;;11.57;2.65;;;;;;;16.63;59.73;101778.94;5071326;28;20063;-53
2022/07/18 04:43:52;;;;;;;12.48;2.88;;;;;;;16.66;59.71;101782.25;5060896;28;20057;-55
2022/07/18 04:46:19;;;;;;;4.28;2.35;;;;;;;16.72;59.55;101778.34;5047800;28;20045;-55
2022/07/18 04:48:46;;;;;;;5.88;2.20;;;;;;;16.78;59.21;101779.75;5053265;28;20056;-58
2022/07/18 04:51:14;;;;;;;9.00;2.35;;;;;;;16.84;59.08;101784.66;5054897;28;20394;-55
2022/07/18 04:53:41;;;;;;;8.50;2.38;;;;;;;16.89;58.94;101779.91;5052111;28;20053;-58
2022/07/18 04:56:08;;;;;;;5.40;2.15;;;;;;;16.93;58.84;101778.72;5058108;28;20056;-55
2022/07/18 04:58:35;;;;;;;10.82;2.75;;;;;;;16.99;59.18;101777.47;5054812;28;20115;-60
2022/07/18 05:01:02;;;;;;;5.32;2.20;;;;;;;17.00;58.87;101774.69;5049253;28;20423;-55
2022/07/18 05:03:29;;;;;;;7.93;2.40;;;;;;;17.06;58.52;101782.25;5046205;28;20177;-53
2022/07/18 05:05:56;;;;;;;5.13;2.58;;;;;;;17.14;58.55;101774.59;5055177;28;20548;-57
2022/07/18 05:08:23;;;;;;;5.45;2.25;;;;;;;17.23;58.00;101774.94;5051290;28;20049;-54
2022/07/18 05:10:50;;;;;;;7.70;2.15;;;;;;;17.29;57.93;101770.06;5058476;28;20045;-56
2022/07/18 05:13:17;;;;;;;4.40;2.47;;;;;;;17.38;57.83;101768.53;5043939;28;20064;-58
2022/07/18 05:15:45;;;;;;;5.40;2.33;;;;;;;17.45;57.47;101777.81;5042269;28;20049;-57
2022/07/18 05:18:12;;;;;;;8.23;2.42;;;;;;;17.52;57.18;101765.81;5053177;28;20163;-56
2022/07/18 05:20:39;;;;;;;9.00;2.78;;;;;;;17.60;56.57;101767.91;5048060;28;20064;-59
2022/07/18 05:23:10;;;;;;;6.18;2.50;;;;;;;17.66;56.42;101768.34;5053544;28;20053;-57
2022/07/18 05:25:37;;;;;;;7.95;2.38;;;;;;;17.72;56.28;101761.72;5053105;28;20413;-56
2022/07/18 05:28:05;;;;;;;8.68;3.30;;;;;;;17.79;56.14;101754.19;5052349;28;20405;-54
2022/07/18 05:30:32;;;;;;;18.20;3.42;;;;;;;17.87;56.03;101765.97;5044488;28;20053;-54
2022/07/18 05:32:59;;;;;;;8.30;2.92;;;;;;;17.95;55.70;101765.44;5049888;28;20581;-54
2022/07/18 05:35:26;;;;;;;9.23;2.47;;;;;;;18.04;55.43;101769.25;5050729;28;20056;-57
2022/07/18 05:37:53;;;;;;;9.48;3.00;;;;;;;18.12;55.37;101765.06;5054344;28;20155;-56
2022/07/18 05:40:20;;;;;;;9.45;2.90;;;;;;;18.20;55.65;101762.69;5050502;28;20060;-55
2022/07/18 05:42:49;;;;;;;10.05;3.47;;;;;;;18.27;55.50;101760.44;5059461;28;20405;-56
2022/07/18 05:45:22;;;;;;;15.45;4.40;;;;;;;18.35;55.76;101757.19;5037099;28;20048;-56
2022/07/18 05:47:51;;;;;;;7.88;2.90;;;;;;;18.37;55.84;101756.16;5052733;28;20061;-55
2022/07/18 05:50:18;;;;;;;9.75;3.60;;;;;;;18.45;55.98;101744.88;5045092;28;20073;-53
2022/07/18 05:52:45;;;;;;;12.68;3.15;;;;;;;18.51;56.13;101748.91;5051966;28;20053;-57
2022/07/18 05:55:13;;;;;;;10.23;2.90;;;;;;;18.61;55.61;101750.78;5044665;28;20407;-56
2022/07/18 05:57:40;;;;;;;10.23;3.03;;;;;;;18.74;55.50;101749.91;5049961;28;20045;-52
2022/07/18 06:00:09;;;;;;;7.50;2.40;;;;;;;18.82;55.63;101750.16;5054574;28;20056;-53
2022/07/18 06:02:36;;;;;;;17.73;3.42;;;;;;;18.87;55.38;101748.88;5048389;28;20131;-52
2022/07/18 06:05:06;;;;;;;9.40;2.70;;;;;;;18.94;55.23;101747.41;5042304;28;20057;-57
2022/07/18 06:07:53;;;;;;;5.63;2.45;;;;;;;19.02;54.80;101746.84;5052063;28;20051;-52
2022/07/18 06:10:21;;;;;;;6.50;3.03;;;;;;;19.17;54.56;101748.31;5047413;28;20150;-57
2022/07/18 06:12:49;;;;;;;9.80;4.35;;;;;;;19.12;54.70;101750.47;5046954;28;20053;-52
2022/07/18 06:15:17;;;;;;;12.48;3.22;;;;;;;19.24;54.77;101751.38;5047824;28;20049;-54
2022/07/18 06:17:44;;;;;;;9.43;3.50;;;;;;;19.30;54.45;101756.22;5052019;28;20049;-55
2022/07/18 06:20:11;;;;;;;11.48;3.67;;;;;;;19.44;53.63;101761.31;5040592;28;20065;-53
2022/07/18 06:22:39;;;;;;;7.00;2.90;;;;;;;19.45;53.80;101760.38;5047795;28;20413;-52
2022/07/18 06:25:06;;;;;;;11.57;2.88;;;;;;;19.57;53.38;101760.38;5057503;28;20057;-58
2022/07/18 06:27:35;;;;;;;10.60;3.10;;;;;;;19.67;53.21;101758.69;5053427;28;20053;-56
2022/07/18 06:30:04;;;;;;;12.07;2.88;;;;;;;19.62;53.16;101760.88;5050482;28;20040;-53
2022/07/18 06:32:31;;;;;;;9.32;2.97;;;;;;;19.76;53.35;101760.63;5054921;28;20056;-53
2022/07/18 06:34:58;;;;;;;10.00;3.15;;;;;;;20.00;52.89;101762.34;5052877;28;20061;-57
2022/07/18 06:37:26;;;;;;;13.68;2.58;;;;;;;19.99;52.34;101764.13;5054770;28;20053;-53
2022/07/18 06:39:53;;;;;;;7.95;3.22;;;;;;;20.13;52.45;101763.88;5055193;28;20060;-57
2022/07/18 06:42:20;;;;;;;6.38;2.50;;;;;;;20.24;51.45;101771.88;5047655;28;20041;-52
2022/07/18 06:44:47;;;;;;;12.93;2.80;;;;;;;20.18;50.77;101775.06;5056921;28;20053;-52
2022/07/18 06:47:14;;;;;;;5.57;2.50;;;;;;;20.37;50.68;101770.88;5048675;28;20053;-57
2022/07/18 06:49:41;;;;;;;10.75;2.60;;;;;;;20.53;50.06;101778.50;5050493;28;20481;-59
2022/07/18 06:52:11;;;;;;;8.48;2.28;;;;;;;20.67;49.92;101775.56;5059626;28;20301;-57
2022/07/18 06:54:40;;;;;;;12.63;3.10;;;;;;;20.69;49.67;101773.59;5064585;28;20468;-58
2022/07/18 06:57:09;;;;;;;14.95;2.70;;;;;;;20.84;49.53;101780.31;5059374;28;20423;-56
2022/07/18 06:59:36;;;;;;;6.47;2.35;;;;;;;20.88;48.85;101781.75;5075264;28;20068;-58
2022/07/18 07:02:04;;;;;;;8.43;2.22;;;;;;;21.03;48.07;101776.09;5079730;28;20052;-58
2022/07/18 07:04:31;;;;;;;8.00;2.00;;;;;;;21.11;47.83;101778.97;5076384;28;20120;-58
2022/07/18 07:06:58;;;;;;;9.48;2.30;;;;;;;21.11;47.71;101777.13;5062305;28;20056;-58
2022/07/18 07:09:25;;;;;;;12.82;2.50;;;;;;;21.07;47.29;101764.97;5059097;28;20045;-58
2022/07/18 07:11:52;;;;;;;7.80;1.52;;;;;;;21.15;47.09;101767.84;5055950;28;20049;-57
2022/07/18 07:14:19;;;;;;;10.27;1.80;;;;;;;21.22;46.39;101766.38;5053733;28;20063;-58
2022/07/18 07:16:48;;;;;;;4.28;1.70;;;;;;;21.34;46.67;101759.13;5062928;28;20148;-57
2022/07/18 07:19:15;;;;;;;9.20;2.17;;;;;;;21.37;45.34;101758.88;5043984;28;20413;-59
2022/07/18 07:21:42;;;;;;;6.80;1.80;;;;;;;21.37;46.04;101756.19;5031533;28;20076;-57
2022/07/18 07:24:09;;;;;;;4.50;1.80;;;;;;;21.41;45.70;101751.41;5034060;28;20129;-55
2022/07/18 07:26:36;;;;;;;4.88;1.95;;;;;;;21.63;45.60;101737.84;5031610;28;20136;-54
2022/07/18 07:29:03;;;;;;;5.00;1.67;;;;;;;21.71;44.99;101737.16;5034124;28;20149;-58
2022/07/18 07:31:31;;;;;;;5.97;1.75;;;;;;;21.74;44.42;101736.88;5040076;28;20062;-56
2022/07/18 07:33:58;;;;;;;5.55;1.73;;;;;;;21.82;44.62;101736.19;5075302;22;20418;-85
2022/07/18 07:36:36;;;;;;;9.55;1.73;;;;;;;22.00;44.23;101734.56;5032186;28;20125;-85
2022/07/18 07:39:06;;;;;;;3.65;1.65;;;;;;;22.06;43.75;101736.69;5064742;28;20087;-85
2022/07/18 07:41:34;;;;;;;3.75;1.63;;;;;;;22.21;43.96;101735.34;5044301;28;20061;-84
2022/07/18 07:44:03;;;;;;;11.77;2.42;;;;;;;22.10;43.37;101731.88;5028919;28;20087;-85
2022/07/18 07:46:31;;;;;;;3.42;1.48;;;;;;;22.28;43.44;101727.56;5026842;28;20059;-85
2022/07/18 07:49:00;;;;;;;8.15;2.22;;;;;;;22.40;42.87;101726.47;5028466;28;20052;-84
2022/07/18 07:51:31;;;;;;;6.70;1.70;;;;;;;22.55;42.62;101736.75;5019758;28;20095;-85
2022/07/18 07:54:05;;;;;;;5.13;1.55;;;;;;;22.58;42.27;101726.59;5008996;28;20091;-85
2022/07/18 07:56:37;;;;;;;4.10;1.63;;;;;;;22.66;42.79;101731.28;5022620;28;20045;-85
2022/07/18 07:59:04;;;;;;;8.25;1.92;;;;;;;22.80;42.75;101729.97;5040364;28;20126;-85
2022/07/18 08:01:36;;;;;;;5.57;1.77;;;;;;;22.77;41.67;101732.94;5048702;28;20052;-84
2022/07/18 08:04:03;;;;;;;4.65;2.10;;;;;;;22.70;41.04;101732.69;5046442;28;20045;-85
2022/07/18 08:06:31;;;;;;;9.57;1.65;;;;;;;22.84;41.23;101737.59;5033299;28;20033;-84
2022/07/18 08:08:58;;;;;;;5.72;1.58;;;;;;;22.98;41.52;101739.03;5051862;28;20072;-84
2022/07/18 08:11:28;;;;;;;4.43;1.80;;;;;;;23.15;41.08;101749.03;5054285;28;20044;-84
2022/07/18 08:13:56;;;;;;;7.00;1.48;;;;;;;23.34;40.42;101741.91;5034900;28;20091;-85
2022/07/18 08:16:24;;;;;;;5.38;1.85;;;;;;;23.43;39.97;101743.72;5040055;28;20029;-86
2022/07/18 08:18:52;;;;;;;5.95;1.65;;;;;;;23.52;39.93;101752.75;5057988;28;20152;-85
2022/07/18 08:21:19;;;;;;;5.95;1.98;;;;;;;23.60;39.51;101745.63;5035664;28;20041;-85
2022/07/18 08:23:48;;;;;;;9.82;2.05;;;;;;;23.59;39.01;101749.28;5053840;28;20042;-85
2022/07/18 08:26:20;;;;;;;5.60;2.53;;;;;;;23.60;39.00;101740.25;5051340;28;20025;-85
2022/07/18 08:28:47;;;;;;;12.50;2.88;;;;;;;23.64;38.48;101741.69;5035892;28;20122;-84
2022/07/18 08:31:18;;;;;;;3.95;2.05;;;;;;;23.86;38.55;101732.34;5033968;28;20034;-85
2022/07/18 08:33:54;;;;;;;8.00;1.83;;;;;;;24.01;38.05;101727.34;5051116;28;20108;-86
2022/07/18 08:36:22;;;;;;;8.60;3.30;;;;;;;23.82;37.84;101739.06;5030248;28;20505;-85
2022/07/18 08:39:06;;;;;;;5.97;2.33;;;;;;;23.79;37.91;101738.50;5038716;28;20719;-85
2022/07/18 08:42:08;;;;;;;6.60;2.25;;;;;;;23.82;38.20;101741.75;5041495;28;20077;-86
2022/07/18 08:47:46;;;;;;;11.52;2.75;;;;;;;24.04;38.33;101737.78;5033592;28;20045;-85
2022/07/18 08:50:29;;;;;;;5.38;2.58;;;;;;;24.17;37.90;101740.09;5017922;28;20046;-85
2022/07/18 08:57:23;;;;;;;6.68;3.75;;;;;;;24.14;36.02;101732.34;5037465;28;19928;-86
2022/07/18 09:00:06;;;;;;;6.35;3.67;;;;;;;24.24;36.58;101736.66;5004219;28;20049;-86
2022/07/18 09:03:05;;;;;;;8.30;3.30;;;;;;;24.07;37.20;101737.47;5025250;28;20135;-85
2022/07/18 09:05:45;;;;;;;10.07;3.47;;;;;;;24.41;37.09;101739.56;5004383;28;20062;-86
2022/07/18 09:09:04;;;;;;;10.10;3.17;;;;;;;24.50;36.28;101733.25;5014057;28;20073;-86
2022/07/18 09:12:11;;;;;;;6.55;3.30;;;;;;;24.65;35.76;101731.69;5046642;28;20074;-86
2022/07/18 09:14:54;;;;;;;10.02;4.07;;;;;;;24.83;35.03;101736.19;5041731;28;20509;-87
2022/07/18 09:17:38;;;;;;;9.27;3.78;;;;;;;24.91;34.54;101741.66;5053099;28;20120;-85
2022/07/18 09:20:22;;;;;;;11.63;4.97;;;;;;;24.61;34.65;101730.31;5038598;28;20509;-86
2022/07/18 09:23:24;;;;;;;;;;;;;;;;;;;;;
2022/07/18 09:26:49;;;;;;;11.50;4.25;;;;;;;24.59;35.90;101734.16;5048526;28;20417;-85
2022/07/18 09:30:38;;;;;;;4.93;2.92;;;;;;;24.97;35.80;101732.94;5017880;28;20711;-86
2022/07/18 09:33:28;;;;;;;10.25;3.10;;;;;;;24.93;35.63;101732.41;5029948;28;20555;-86
2022/07/18 09:36:36;;;;;;;12.25;3.35;;;;;;;25.26;34.57;101738.03;5043741;28;20519;-86
2022/07/18 09:39:29;;;;;;;6.72;3.03;;;;;;;25.63;34.87;101729.66;5033104;28;20042;-86
2022/07/18 09:42:31;;;;;;;4.32;2.58;;;;;;;25.57;34.98;101732.13;5028799;28;20064;-84
2022/07/18 09:45:31;;;;;;;;;;;;;;;25.74;34.82;101725.81;5039665;28;20044;-86
2022/07/18 09:48:20;;;;;;;3.90;2.25;;;;;;;25.95;34.97;101722.72;5047928;28;19928;-86
2022/07/18 09:51:19;;;;;;;7.35;2.60;;;;;;;26.36;34.19;101722.78;5053675;28;20028;-85
2022/07/18 09:53:55;;;;;;;6.45;2.55;;;;;;;26.46;33.67;101718.94;5047537;28;20041;-86
2022/07/18 09:56:24;;;;;;;4.20;2.20;;;;;;;26.57;33.11;101720.47;5052668;28;20045;-85
2022/07/18 09:58:59;;;;;;;8.32;2.70;;;;;;;26.42;32.67;101722.09;5058812;28;20067;-87
2022/07/18 10:01:32;;;;;;;5.45;2.65;;;;;;;26.07;33.06;101721.38;5044622;28;20041;-86
2022/07/18 10:04:04;;;;;;;6.72;2.80;;;;;;;26.40;33.28;101721.44;5042257;28;20139;-86
2022/07/18 10:06:31;;;;;;;7.63;3.30;;;;;;;26.69;32.61;101715.56;5025664;28;20128;-85
2022/07/18 10:09:38;;;;;;;;;;;;;;;;;;;;;
2022/07/18 10:12:42;;;;;;;6.35;2.70;;;;;;;26.91;32.16;101717.56;5054385;28;20049;-87
2022/07/18 10:15:33;;;;;;;5.88;3.15;;;;;;;27.13;32.06;101716.03;5046677;28;20086;-85
2022/07/18 10:18:37;;;;;;;;;;;;;;;27.23;31.60;101723.97;5042692;28;20052;-86
2022/07/18 10:21:19;;;;;;;11.27;3.30;;;;;;;27.08;31.67;101717.56;5027327;28;20019;-87
2022/07/18 10:23:54;;;;;;;;;;;;;;;27.21;31.56;101721.44;5046380;28;20037;-86
2022/07/18 10:26:29;;;;;;;5.38;3.05;;;;;;;27.18;31.43;101710.13;5048356;28;19920;-86
2022/07/18 10:29:34;;;;;;;9.70;2.95;;;;;;;27.54;31.67;101704.25;5037874;28;20140;-87
2022/07/18 10:36:07;;;;;;;6.82;2.70;;;;;;;27.35;30.69;101721.75;5035311;28;20555;-85
2022/07/18 10:39:14;;;;;;;8.95;3.08;;;;;;;27.42;30.51;101718.19;5046405;23;20041;-61
2022/07/18 10:41:44;;;;;;;6.53;3.45;;;;;;;27.31;30.99;101715.84;5050420;28;20053;-60
2022/07/18 10:44:23;;;;;;;4.82;2.70;;;;;;;27.16;31.13;101715.72;5050383;28;20319;-55
2022/07/18 10:47:03;;;;;;;6.15;2.90;;;;;;;27.52;30.90;101712.56;5049692;28;20148;-58
2022/07/18 10:49:52;;;;;;;7.10;3.33;;;;;;;27.59;30.31;101713.53;5069771;22;20079;-56
2022/07/18 10:52:25;;;;;;;6.15;3.05;;;;;;;27.72;30.71;101713.84;5021377;28;20568;-56
2022/07/18 10:55:05;;;;;;;9.38;3.50;;;;;;;27.81;30.54;101700.28;5030260;28;20062;-58
2022/07/18 10:57:33;;;;;;;5.03;2.97;;;;;;;27.59;30.48;101712.69;5032209;28;20059;-57
2022/07/18 11:00:13;;;;;;;6.38;2.78;;;;;;;27.65;30.82;101698.44;5030629;28;20064;-57
2022/07/18 11:02:46;;;;;;;8.35;2.90;;;;;;;27.58;30.44;101700.19;5024212;28;20056;-59
2022/07/18 11:05:22;;;;;;;7.95;2.80;;;;;;;27.57;30.13;101695.81;5031810;28;20054;-58
2022/07/18 11:08:01;;;;;;;4.57;3.20;;;;;;;27.71;29.99;101703.16;5032463;28;20304;-53
2022/07/18 11:13:28;;;;;;;5.80;3.00;;;;;;;28.02;29.19;101689.66;5011489;28;20065;-57
2022/07/18 11:16:11;;;;;;;5.35;3.15;;;;;;;27.96;29.77;101690.34;5010488;28;20054;-57
2022/07/18 11:18:44;;;;;;;7.18;3.38;;;;;;;27.95;29.99;101685.97;5012126;28;20050;-57
2022/07/18 11:21:17;;;;;;;7.88;3.53;;;;;;;28.33;29.25;101695.03;5010989;28;20061;-54
2022/07/18 11:23:46;;;;;;;7.75;3.45;;;;;;;28.49;29.14;101685.94;5012219;28;20057;-57
2022/07/18 11:26:15;;;;;;;7.53;3.30;;;;;;;28.72;28.59;101680.47;5048215;28;20076;-55
2022/07/18 11:28:43;;;;;;;7.15;2.72;;;;;;;29.02;28.82;101682.25;5046030;28;20707;-56
2022/07/18 11:31:11;;;;;;;9.88;4.15;;;;;;;29.35;28.28;101675.59;5010610;28;20176;-56
2022/07/18 11:33:43;;;;;;;5.63;3.80;;;;;;;29.60;28.63;101671.56;5025755;28;20507;-53
2022/07/18 11:36:14;;;;;;;6.32;2.88;;;;;;;30.05;27.69;101672.28;5029875;28;20060;-57
2022/07/18 11:38:48;;;;;;;7.85;3.33;;;;;;;29.85;27.13;101665.78;5023721;28;20072;-52
2022/07/18 11:41:15;;;;;;;11.27;3.40;;;;;;;29.67;27.26;101652.66;5018212;28;20049;-54
2022/07/18 11:43:46;;;;;;;5.45;3.50;;;;;;;29.60;27.46;101660.72;5031874;28;20073;-58
2022/07/18 11:46:15;;;;;;;6.93;3.45;;;;;;;29.79;27.43;101661.97;5028182;28;20403;-58
2022/07/18 11:48:45;;;;;;;5.50;3.42;;;;;;;30.24;27.48;101655.38;5018962;28;20045;-57
2022/07/18 11:51:20;;;;;;;6.97;3.47;;;;;;;30.70;26.99;101654.06;5015560;28;20410;-54
2022/07/18 11:53:48;;;;;;;;;;;;;;;30.93;26.86;101651.94;5015745;28;20490;-53
2022/07/18 11:56:15;;;;;;;8.23;3.38;;;;;;;31.26;25.70;101646.69;5009892;28;19921;-57
2022/07/18 11:58:44;;;;;;;8.18;3.85;;;;;;;31.65;25.19;101647.06;5011977;28;20058;-56
2022/07/18 12:01:12;;;;;;;4.15;3.17;;;;;;;31.86;25.04;101643.41;5009735;28;20053;-56
2022/07/18 12:03:41;;;;;;;7.85;3.78;;;;;;;31.75;24.85;101634.75;5033186;28;20057;-57